Time,TemperatureF,DewpointF,PressureIn,WindDirection,WindDirectionDegrees,WindSpeedMPH,WindSpeedGustMPH,Humidity,HourlyPrecipIn,Conditions,Clouds,dailyrainin,SoftwareType,DateUTC
2013-05-09 00:05:00,43.3,21.2,17.72,NNE,17,0.0,0.0,41,0.00,,,0.00,WeatherTracker,2013-05-09 07:05:00,
2013-05-09 00:10:00,43.2,21.6,17.72,NNE,17,0.0,0.0,42,0.00,,,0.00,WeatherTracker,2013-05-09 07:10:00,
2013-05-09 00:20:00,42.8,21.3,17.72,NNE,17,0.0,0.0,42,0.00,,,0.00,WeatherTracker,2013-05-09 07:20:00,
2013-05-09 00:30:00,43.0,21.5,17.72,NNE,17,0.0,0.0,42,0.00,,,0.00,WeatherTracker,2013-05-09 07:30:00,
2013-05-09 00:40:00,43.0,21.5,17.72,NNE,17,0.0,0.0,42,0.00,,,0.00,WeatherTracker,2013-05-09 07:40:00,
2013-05-09 00:50:00,42.6,21.7,17.72,NNE,17,0.0,0.0,43,0.00,,,0.00,WeatherTracker,2013-05-09 07:50:00,
2013-05-09 00:55:00,42.4,21.5,17.72,NNE,17,0.0,0.0,43,0.00,,,0.00,WeatherTracker,2013-05-09 07:55:00,
2013-05-09 01:05:00,41.5,21.8,17.72,NNE,17,0.0,0.0,45,0.00,,,0.00,WeatherTracker,2013-05-09 08:05:00,
2013-05-09 01:15:00,41.0,21.8,17.72,NNE,17,0.0,0.0,46,0.00,,,0.00,WeatherTracker,2013-05-09 08:15:00,
2013-05-09 01:25:00,40.5,21.3,17.72,NNE,17,0.0,0.0,46,0.00,,,0.00,WeatherTracker,2013-05-09 08:25:00,
2013-05-09 01:30:00,40.1,21.0,17.72,NNE,17,0.0,0.0,46,0.00,,,0.00,WeatherTracker,2013-05-09 08:30:00,
2013-05-09 01:35:00,40.1,21.5,17.72,NNE,17,0.0,0.0,47,0.00,,,0.00,WeatherTracker,2013-05-09 08:35:00,
2013-05-09 01:40:00,39.9,21.3,17.72,NNE,17,0.0,0.0,47,0.00,,,0.00,WeatherTracker,2013-05-09 08:40:00,
2013-05-09 01:45:00,39.9,21.8,17.72,NNE,17,0.0,0.0,48,0.00,,,0.00,WeatherTracker,2013-05-09 08:45:00,
2013-05-09 01:50:00,39.9,21.8,17.72,NNE,17,0.0,0.0,48,0.00,,,0.00,WeatherTracker,2013-05-09 08:50:00,
2013-05-09 02:00:00,39.2,21.7,17.72,NNE,17,0.0,0.0,49,0.00,,,0.00,WeatherTracker,2013-05-09 09:00:00,
2013-05-09 02:10:00,39.0,21.5,17.72,NNE,17,0.0,0.0,49,0.00,,,0.00,WeatherTracker,2013-05-09 09:10:00,
2013-05-09 02:15:00,38.8,21.3,17.72,NNE,17,0.0,0.0,49,0.00,,,0.00,WeatherTracker,2013-05-09 09:15:00,
2013-05-09 02:25:00,38.7,21.2,17.72,NNE,17,0.0,0.0,49,0.00,,,0.00,WeatherTracker,2013-05-09 09:25:00,
2013-05-09 02:30:00,38.5,21.5,17.72,NNE,17,0.0,0.0,50,0.00,,,0.00,WeatherTracker,2013-05-09 09:30:00,
2013-05-09 02:35:00,38.3,21.3,17.72,NNE,17,0.0,0.0,50,0.00,,,0.00,WeatherTracker,2013-05-09 09:35:00,
2013-05-09 02:45:00,37.6,21.1,17.72,NNE,17,0.0,0.0,51,0.00,,,0.00,WeatherTracker,2013-05-09 09:45:00,
2013-05-09 02:50:00,37.6,21.1,17.72,NNE,17,0.0,0.0,51,0.00,,,0.00,WeatherTracker,2013-05-09 09:50:00,
2013-05-09 03:00:00,37.2,20.8,17.72,NNE,17,0.0,0.0,51,0.00,,,0.00,WeatherTracker,2013-05-09 10:00:00,
2013-05-09 03:10:00,36.5,20.1,17.72,NNE,17,0.0,0.0,51,0.00,,,0.00,WeatherTracker,2013-05-09 10:10:00,
2013-05-09 03:20:00,36.5,20.6,17.72,NNE,17,0.0,0.0,52,0.00,,,0.00,WeatherTracker,2013-05-09 10:20:00,
2013-05-09 03:25:00,36.3,19.9,17.72,NNE,17,0.0,0.0,51,0.00,,,0.00,WeatherTracker,2013-05-09 10:25:00,
2013-05-09 03:30:00,35.8,19.9,17.72,NNE,17,0.0,0.0,52,0.00,,,0.00,WeatherTracker,2013-05-09 10:30:00,
2013-05-09 03:35:00,35.4,19.6,17.72,NNE,17,0.0,0.0,52,0.00,,,0.00,WeatherTracker,2013-05-09 10:35:00,
2013-05-09 03:45:00,35.4,20.0,17.72,NNE,17,0.0,0.0,53,0.00,,,0.00,WeatherTracker,2013-05-09 10:45:00,
2013-05-09 03:50:00,35.2,19.8,17.72,NNE,17,0.0,0.0,53,0.00,,,0.00,WeatherTracker,2013-05-09 10:50:00,
2013-05-09 04:00:00,34.9,19.5,17.72,NNE,17,0.0,0.0,53,0.00,,,0.00,WeatherTracker,2013-05-09 11:00:00,
2013-05-09 04:10:00,35.1,19.7,17.72,NNE,17,0.0,0.0,53,0.00,,,0.00,WeatherTracker,2013-05-09 11:10:00,
2013-05-09 04:15:00,34.5,19.2,17.72,NNE,17,0.0,0.0,53,0.00,,,0.00,WeatherTracker,2013-05-09 11:15:00,
2013-05-09 04:20:00,34.2,18.8,17.72,NNE,17,0.0,0.0,53,0.00,,,0.00,WeatherTracker,2013-05-09 11:20:00,
2013-05-09 04:30:00,33.8,19.4,17.72,NNE,17,0.0,0.0,55,0.00,,,0.00,WeatherTracker,2013-05-09 11:30:00,
2013-05-09 04:35:00,33.8,19.4,17.72,NNE,17,0.0,0.0,55,0.00,,,0.00,WeatherTracker,2013-05-09 11:35:00,
2013-05-09 04:45:00,33.8,18.9,17.72,NNE,17,0.0,0.0,54,0.00,,,0.00,WeatherTracker,2013-05-09 11:45:00,
2013-05-09 04:55:00,33.4,19.0,17.72,NNE,17,0.0,0.0,55,0.00,,,0.00,WeatherTracker,2013-05-09 11:55:00,
2013-05-09 05:05:00,33.4,19.4,17.72,NNE,17,0.0,0.0,56,0.00,,,0.00,WeatherTracker,2013-05-09 12:05:00,
2013-05-09 05:10:00,33.6,19.6,17.72,NNE,17,0.0,0.0,56,0.00,,,0.00,WeatherTracker,2013-05-09 12:10:00,
2013-05-09 05:20:00,33.1,18.7,17.72,NNE,17,0.0,0.0,55,0.00,,,0.00,WeatherTracker,2013-05-09 12:20:00,
2013-05-09 05:25:00,33.1,19.1,17.72,NNE,17,0.0,0.0,56,0.00,,,0.00,WeatherTracker,2013-05-09 12:25:00,
2013-05-09 05:35:00,32.7,18.8,17.72,NNE,17,0.0,0.0,56,0.00,,,0.00,WeatherTracker,2013-05-09 12:35:00,
2013-05-09 05:45:00,32.9,19.4,17.72,NNE,17,0.0,0.0,57,0.00,,,0.00,WeatherTracker,2013-05-09 12:45:00,
2013-05-09 05:50:00,32.9,18.9,17.72,NNE,17,0.0,0.0,56,0.00,,,0.00,WeatherTracker,2013-05-09 12:50:00,
2013-05-09 05:55:00,32.7,18.8,17.72,NNE,17,0.0,0.0,56,0.00,,,0.00,WeatherTracker,2013-05-09 12:55:00,
2013-05-09 06:05:00,32.5,19.0,17.72,NNE,17,0.0,0.0,57,0.00,,,0.00,WeatherTracker,2013-05-09 13:05:00,
2013-05-09 06:15:00,33.4,20.3,17.72,NNE,17,0.0,0.0,58,0.00,,,0.00,WeatherTracker,2013-05-09 13:15:00,
2013-05-09 06:20:00,34.0,20.4,17.72,NNE,17,0.0,0.0,57,0.00,,,0.00,WeatherTracker,2013-05-09 13:20:00,
2013-05-09 06:25:00,34.2,20.1,17.72,NNE,17,0.0,0.0,56,0.00,,,0.00,WeatherTracker,2013-05-09 13:25:00,
2013-05-09 06:30:00,34.3,20.3,17.72,NNE,17,0.0,0.0,56,0.00,,,0.00,WeatherTracker,2013-05-09 13:30:00,
2013-05-09 06:35:00,34.7,20.6,17.72,NNE,17,0.0,0.0,56,0.00,,,0.00,WeatherTracker,2013-05-09 13:35:00,
2013-05-09 06:45:00,35.4,21.3,17.72,NNE,17,0.0,0.0,56,0.00,,,0.00,WeatherTracker,2013-05-09 13:45:00,
2013-05-09 06:55:00,35.8,21.2,17.72,NNE,17,0.0,0.0,55,0.00,,,0.00,WeatherTracker,2013-05-09 13:55:00,
2013-05-09 07:05:00,36.9,22.6,17.72,NNE,17,0.0,0.0,56,0.00,,,0.00,WeatherTracker,2013-05-09 14:05:00,
2013-05-09 07:10:00,37.2,23.0,17.72,NNE,17,0.0,0.0,56,0.00,,,0.00,WeatherTracker,2013-05-09 14:10:00,
2013-05-09 07:20:00,38.8,23.6,17.72,NNE,17,0.0,0.0,54,0.00,,,0.00,WeatherTracker,2013-05-09 14:20:00,
2013-05-09 07:30:00,41.0,24.3,17.72,NNE,17,0.0,0.0,51,0.00,,,0.00,WeatherTracker,2013-05-09 14:30:00,
2013-05-09 07:40:00,42.3,25.0,17.72,NNE,17,0.0,0.0,50,0.00,,,0.00,WeatherTracker,2013-05-09 14:40:00,
2013-05-09 07:50:00,44.1,25.6,17.72,NNE,17,0.0,0.0,48,0.00,,,0.00,WeatherTracker,2013-05-09 14:50:00,
2013-05-09 08:00:00,45.9,24.1,17.72,NNE,17,0.0,0.0,42,0.00,,,0.00,WeatherTracker,2013-05-09 15:00:00,
2013-05-09 08:05:00,46.9,23.3,17.72,North,4,0.0,0.0,39,0.00,,,0.00,WeatherTracker,2013-05-09 15:05:00,
2013-05-09 08:10:00,47.3,23.6,17.72,East,81,0.0,0.0,39,0.00,,,0.00,WeatherTracker,2013-05-09 15:10:00,
2013-05-09 08:15:00,48.0,23.0,17.72,ENE,74,0.0,0.0,37,0.00,,,0.00,WeatherTracker,2013-05-09 15:15:00,
2013-05-09 08:25:00,48.7,23.6,17.72,East,90,0.0,0.0,37,0.00,,,0.00,WeatherTracker,2013-05-09 15:25:00,
2013-05-09 08:36:00,49.3,24.1,17.72,ENE,65,0.0,0.0,37,0.00,,,0.00,WeatherTracker,2013-05-09 15:36:00,
2013-05-09 08:45:00,50.2,24.9,17.72,SE,132,0.0,0.0,37,0.00,,,0.00,WeatherTracker,2013-05-09 15:45:00,
2013-05-09 08:50:00,50.2,24.3,17.72,East,98,0.0,0.0,36,0.00,,,0.00,WeatherTracker,2013-05-09 15:50:00,
2013-05-09 09:00:00,51.3,24.6,17.72,SSE,155,0.0,0.0,35,0.00,,,0.00,WeatherTracker,2013-05-09 16:00:00,
2013-05-09 09:05:00,52.2,23.2,17.72,ENE,74,0.0,2.0,32,0.00,,,0.00,WeatherTracker,2013-05-09 16:05:00,
2013-05-09 09:11:00,52.7,22.1,17.72,NNE,14,0.0,0.0,30,0.00,,,0.00,WeatherTracker,2013-05-09 16:11:00,
2013-05-09 09:20:00,54.3,21.9,17.72,WNW,299,0.0,0.0,28,0.00,,,0.00,WeatherTracker,2013-05-09 16:20:00,
2013-05-09 09:25:00,54.7,22.2,17.72,SE,126,3.0,3.0,28,0.00,,,0.00,WeatherTracker,2013-05-09 16:25:00,
2013-05-09 09:35:00,54.7,22.2,17.72,SSE,150,0.0,0.0,28,0.00,,,0.00,WeatherTracker,2013-05-09 16:35:00,
2013-05-09 09:40:00,54.5,22.1,17.72,ESE,114,3.0,0.0,28,0.00,,,0.00,WeatherTracker,2013-05-09 16:40:00,
2013-05-09 09:46:00,54.1,22.6,17.72,SE,126,0.0,0.0,29,0.00,,,0.00,WeatherTracker,2013-05-09 16:46:00,
2013-05-09 09:55:00,52.9,26.7,17.72,SE,138,0.0,0.0,36,0.00,,,0.00,WeatherTracker,2013-05-09 16:55:00,
2013-05-09 10:00:00,52.7,25.8,17.72,SSE,159,0.0,0.0,35,0.00,,,0.00,WeatherTracker,2013-05-09 17:00:00,
2013-05-09 10:10:00,52.9,24.6,17.72,SE,143,0.0,0.0,33,0.00,,,0.00,WeatherTracker,2013-05-09 17:10:00,
2013-05-09 10:20:00,55.2,23.5,17.72,SE,140,0.0,0.0,29,0.00,,,0.00,WeatherTracker,2013-05-09 17:20:00,
2013-05-09 10:25:00,56.7,23.1,17.72,NE,48,0.0,0.0,27,0.00,,,0.00,WeatherTracker,2013-05-09 17:25:00,
2013-05-09 10:35:00,58.8,24.0,17.72,ESE,119,4.0,4.0,26,0.00,,,0.00,WeatherTracker,2013-05-09 17:35:00,
2013-05-09 10:45:00,60.4,24.5,17.72,South,182,3.0,5.0,25,0.00,,,0.00,WeatherTracker,2013-05-09 17:45:00,
2013-05-09 10:55:00,61.2,24.1,17.72,West,262,2.0,3.0,24,0.00,,,0.00,WeatherTracker,2013-05-09 17:55:00,
2013-05-09 11:05:00,57.9,23.2,17.72,SE,132,4.0,4.0,26,0.00,,,0.00,WeatherTracker,2013-05-09 18:05:00,
2013-05-09 11:10:00,56.7,23.1,17.72,NNE,17,4.0,4.0,27,0.00,,,0.00,WeatherTracker,2013-05-09 18:10:00,
2013-05-09 11:20:00,54.5,22.1,17.72,NNW,333,3.0,0.0,28,0.00,,,0.00,WeatherTracker,2013-05-09 18:20:00,
2013-05-09 11:25:00,54.0,22.4,17.72,NNE,32,0.0,0.0,29,0.00,,,0.00,WeatherTracker,2013-05-09 18:25:00,
2013-05-09 11:31:00,53.8,23.1,17.72,NNE,29,0.0,0.0,30,0.00,,,0.00,WeatherTracker,2013-05-09 18:31:00,
2013-05-09 11:40:00,54.5,23.7,17.72,North,350,3.0,4.0,30,0.00,,,0.00,WeatherTracker,2013-05-09 18:40:00,
2013-05-09 11:45:00,55.2,23.5,17.72,ESE,106,0.0,0.0,29,0.00,,,0.00,WeatherTracker,2013-05-09 18:45:00,
2013-05-09 11:55:00,55.6,23.0,17.72,NNW,338,4.0,4.0,28,0.00,,,0.00,WeatherTracker,2013-05-09 18:55:00,
2013-05-09 12:00:00,55.6,22.1,17.72,NNE,25,3.0,3.0,27,0.00,,,0.00,WeatherTracker,2013-05-09 19:00:00,
2013-05-09 12:06:00,55.4,22.0,17.72,NNE,19,4.0,4.0,27,0.00,,,0.00,WeatherTracker,2013-05-09 19:06:00,
2013-05-09 12:15:00,57.0,24.2,17.72,NE,55,0.0,0.0,28,0.00,,,0.00,WeatherTracker,2013-05-09 19:15:00,
2013-05-09 12:20:00,58.1,24.3,17.72,NNE,22,3.0,0.0,27,0.00,,,0.00,WeatherTracker,2013-05-09 19:20:00,
2013-05-09 12:30:00,59.2,25.2,17.72,North,11,3.0,4.0,27,0.00,,,0.00,WeatherTracker,2013-05-09 19:30:00,
2013-05-09 12:40:00,59.0,25.1,17.72,NNE,17,3.0,0.0,27,0.00,,,0.00,WeatherTracker,2013-05-09 19:40:00,
2013-05-09 12:45:00,59.9,24.9,17.72,North,6,3.0,4.0,26,0.00,,,0.00,WeatherTracker,2013-05-09 19:45:00,
2013-05-09 12:55:00,59.4,24.5,17.72,North,6,0.0,0.0,26,0.00,,,0.00,WeatherTracker,2013-05-09 19:55:00,
2013-05-09 13:05:00,57.6,22.9,17.72,North,5,0.0,0.0,26,0.00,,,0.00,WeatherTracker,2013-05-09 20:05:00,
2013-05-09 13:10:00,57.2,22.6,17.72,NNW,329,0.0,0.0,26,0.00,,,0.00,WeatherTracker,2013-05-09 20:10:00,
2013-05-09 13:15:00,56.8,26.5,17.72,SW,223,0.0,0.0,31,0.00,,,0.00,WeatherTracker,2013-05-09 20:15:00,
2013-05-09 13:25:00,54.9,28.4,17.72,SE,126,0.0,0.0,36,0.00,,,0.00,WeatherTracker,2013-05-09 20:25:00,
2013-05-09 13:30:00,55.2,28.1,17.72,SSE,154,0.0,0.0,35,0.00,,,0.00,WeatherTracker,2013-05-09 20:30:00,
2013-05-09 13:35:00,55.2,25.9,17.72,NNE,32,0.0,0.0,32,0.00,,,0.00,WeatherTracker,2013-05-09 20:35:00,
2013-05-09 13:40:00,55.4,28.2,17.72,ENE,68,2.0,0.0,35,0.00,,,0.00,WeatherTracker,2013-05-09 20:40:00,
2013-05-09 13:51:00,56.3,29.7,17.72,ENE,61,0.0,0.0,36,0.00,,,0.00,WeatherTracker,2013-05-09 20:51:00,
2013-05-09 14:00:00,56.8,25.7,17.72,NNW,345,4.0,4.0,30,0.00,,,0.00,WeatherTracker,2013-05-09 21:00:00,
2013-05-09 14:05:00,56.5,25.4,17.72,NE,44,3.0,6.0,30,0.00,,,0.00,WeatherTracker,2013-05-09 21:05:00,
2013-05-09 14:15:00,55.4,25.3,17.72,ENE,60,0.0,0.0,31,0.00,,,0.00,WeatherTracker,2013-05-09 21:15:00,
2013-05-09 14:20:00,54.5,24.5,17.72,SSE,154,4.0,0.0,31,0.00,,,0.00,WeatherTracker,2013-05-09 21:20:00,
2013-05-09 14:25:00,53.8,24.6,17.72,ESE,123,0.0,0.0,32,0.00,,,0.00,WeatherTracker,2013-05-09 21:25:00,
2013-05-09 14:35:00,52.3,24.1,17.72,NNW,341,3.0,5.0,33,0.00,,,0.00,WeatherTracker,2013-05-09 21:35:00,
2013-05-09 14:40:00,51.4,25.4,17.72,North,349,2.0,3.0,36,0.00,,,0.00,WeatherTracker,2013-05-09 21:40:00,
2013-05-09 14:50:00,52.0,25.9,17.72,North,353,0.0,3.0,36,0.00,,,0.00,WeatherTracker,2013-05-09 21:50:00,
2013-05-09 15:00:00,52.5,25.7,17.72,NE,37,0.0,0.0,35,0.00,,,0.00,WeatherTracker,2013-05-09 22:00:00,
2013-05-09 15:05:00,52.9,25.3,17.72,WNW,298,0.0,0.0,34,0.00,,,0.00,WeatherTracker,2013-05-09 22:05:00,
2013-05-09 15:15:00,52.3,25.5,17.72,North,8,0.0,0.0,35,0.00,,,0.00,WeatherTracker,2013-05-09 22:15:00,
2013-05-09 15:20:00,52.0,25.2,17.72,NNE,14,0.0,0.0,35,0.00,,,0.00,WeatherTracker,2013-05-09 22:20:00,
2013-05-09 15:25:00,52.0,24.5,17.72,West,277,0.0,0.0,34,0.00,,,0.00,WeatherTracker,2013-05-09 22:25:00,
2013-05-09 15:35:00,52.2,23.9,17.72,East,85,0.0,0.0,33,0.00,,,0.00,WeatherTracker,2013-05-09 22:35:00,
2013-05-09 15:40:00,52.7,24.4,17.72,WSW,252,0.0,0.0,33,0.00,,,0.00,WeatherTracker,2013-05-09 22:40:00,
2013-05-09 15:50:00,53.2,24.2,17.72,ESE,115,0.0,0.0,32,0.00,,,0.00,WeatherTracker,2013-05-09 22:50:00,
2013-05-09 15:55:00,53.4,24.3,17.72,East,99,0.0,0.0,32,0.00,,,0.00,WeatherTracker,2013-05-09 22:55:00,
2013-05-09 16:00:00,53.8,24.6,17.72,ESE,115,0.0,0.0,32,0.00,,,0.00,WeatherTracker,2013-05-09 23:00:00,
2013-05-09 16:10:00,53.6,24.5,17.72,ESE,109,0.0,3.0,32,0.00,,,0.00,WeatherTracker,2013-05-09 23:10:00,
2013-05-09 16:20:00,53.4,24.3,17.72,East,100,0.0,0.0,32,0.00,,,0.00,WeatherTracker,2013-05-09 23:20:00,
2013-05-09 16:25:00,53.4,24.3,17.72,NE,52,0.0,0.0,32,0.00,,,0.00,WeatherTracker,2013-05-09 23:25:00,
2013-05-09 16:35:00,53.2,23.4,17.72,NNE,17,0.0,0.0,31,0.00,,,0.00,WeatherTracker,2013-05-09 23:35:00,
2013-05-09 16:40:00,53.4,24.3,17.72,NNE,31,0.0,0.0,32,0.00,,,0.00,WeatherTracker,2013-05-09 23:40:00,
2013-05-09 16:45:00,53.4,23.6,17.72,NNE,18,0.0,0.0,31,0.00,,,0.00,WeatherTracker,2013-05-09 23:45:00,
2013-05-09 16:55:00,54.0,24.0,17.72,NNE,30,0.0,0.0,31,0.00,,,0.00,WeatherTracker,2013-05-09 23:55:00,
2013-05-09 17:00:00,54.1,24.2,17.72,North,7,0.0,0.0,31,0.00,,,0.00,WeatherTracker,2013-05-10 00:00:00,
2013-05-09 17:05:00,54.0,24.0,17.72,North,4,0.0,0.0,31,0.00,,,0.00,WeatherTracker,2013-05-10 00:05:00,
2013-05-09 17:10:00,54.0,24.0,17.72,North,11,0.0,0.0,31,0.00,,,0.00,WeatherTracker,2013-05-10 00:10:00,
2013-05-09 17:15:00,54.1,24.9,17.72,North,9,0.0,0.0,32,0.00,,,0.00,WeatherTracker,2013-05-10 00:15:00,
2013-05-09 17:25:00,54.5,24.5,17.72,NE,55,0.0,0.0,31,0.00,,,0.00,WeatherTracker,2013-05-10 00:25:00,
2013-05-09 17:30:00,54.7,23.9,17.72,ENE,63,0.0,0.0,30,0.00,,,0.00,WeatherTracker,2013-05-10 00:30:00,
2013-05-09 17:35:00,54.7,23.9,17.72,ENE,73,0.0,0.0,30,0.00,,,0.00,WeatherTracker,2013-05-10 00:35:00,
2013-05-09 17:45:00,54.9,24.0,17.72,East,100,0.0,0.0,30,0.00,,,0.00,WeatherTracker,2013-05-10 00:45:00,
2013-05-09 17:55:00,54.7,23.9,17.72,NNE,18,0.0,0.0,30,0.00,,,0.00,WeatherTracker,2013-05-10 00:55:00,
2013-05-09 18:05:00,54.3,23.6,17.72,NNE,18,0.0,0.0,30,0.00,,,0.00,WeatherTracker,2013-05-10 01:05:00,
2013-05-09 18:10:00,54.0,23.2,17.72,ENE,70,0.0,0.0,30,0.00,,,0.00,WeatherTracker,2013-05-10 01:10:00,
2013-05-09 18:15:00,53.8,23.1,17.72,ENE,69,0.0,0.0,30,0.00,,,0.00,WeatherTracker,2013-05-10 01:15:00,
2013-05-09 18:20:00,53.6,22.9,17.72,ENE,69,0.0,0.0,30,0.00,,,0.00,WeatherTracker,2013-05-10 01:20:00,
2013-05-09 18:30:00,53.1,23.2,17.72,ENE,69,0.0,0.0,31,0.00,,,0.00,WeatherTracker,2013-05-10 01:30:00,
2013-05-09 18:35:00,52.7,22.9,17.72,ENE,69,0.0,0.0,31,0.00,,,0.00,WeatherTracker,2013-05-10 01:35:00,
2013-05-09 18:40:00,52.3,23.4,17.72,ENE,69,0.0,0.0,32,0.00,,,0.00,WeatherTracker,2013-05-10 01:40:00,
2013-05-09 18:50:00,51.6,23.5,17.72,ENE,69,0.0,0.0,33,0.00,,,0.00,WeatherTracker,2013-05-10 01:50:00,
2013-05-09 18:55:00,51.3,23.1,17.72,ENE,69,0.0,0.0,33,0.00,,,0.00,WeatherTracker,2013-05-10 01:55:00,
2013-05-09 19:05:00,50.2,24.3,17.72,NE,55,0.0,0.0,36,0.00,,,0.00,WeatherTracker,2013-05-10 02:05:00,
2013-05-09 19:15:00,50.0,24.1,17.72,NE,55,0.0,0.0,36,0.00,,,0.00,WeatherTracker,2013-05-10 02:15:00,
2013-05-09 19:20:00,50.0,24.8,17.72,NE,55,0.0,0.0,37,0.00,,,0.00,WeatherTracker,2013-05-10 02:20:00,
2013-05-09 19:30:00,49.6,25.1,17.72,NE,55,0.0,0.0,38,0.00,,,0.00,WeatherTracker,2013-05-10 02:30:00,
2013-05-09 19:40:00,49.1,25.2,17.72,NE,55,0.0,0.0,39,0.00,,,0.00,WeatherTracker,2013-05-10 02:40:00,
2013-05-09 19:50:00,48.6,24.7,17.72,NE,54,0.0,0.0,39,0.00,,,0.00,WeatherTracker,2013-05-10 02:50:00,
2013-05-09 19:55:00,48.4,24.6,17.72,NE,55,0.0,0.0,39,0.00,,,0.00,WeatherTracker,2013-05-10 02:55:00,
2013-05-09 20:05:00,47.3,25.4,17.72,NE,55,0.0,0.0,42,0.00,,,0.00,WeatherTracker,2013-05-10 03:05:00,
2013-05-09 20:15:00,47.5,25.5,17.72,NE,55,0.0,0.0,42,0.00,,,0.00,WeatherTracker,2013-05-10 03:15:00,
2013-05-09 20:26:00,46.9,25.1,17.72,NE,55,0.0,0.0,42,0.00,,,0.00,WeatherTracker,2013-05-10 03:26:00,
2013-05-09 20:35:00,46.8,24.9,17.72,NE,55,0.0,0.0,42,0.00,,,0.00,WeatherTracker,2013-05-10 03:35:00,
2013-05-09 20:40:00,46.8,24.9,17.72,NE,55,0.0,0.0,42,0.00,,,0.00,WeatherTracker,2013-05-10 03:40:00,
2013-05-09 20:45:00,46.6,24.7,17.72,NE,55,0.0,0.0,42,0.00,,,0.00,WeatherTracker,2013-05-10 03:45:00,
2013-05-09 20:55:00,46.0,24.2,17.72,NE,55,0.0,0.0,42,0.00,,,0.00,WeatherTracker,2013-05-10 03:55:00,
2013-05-09 21:00:00,45.3,23.6,17.72,NE,55,0.0,0.0,42,0.00,,,0.00,WeatherTracker,2013-05-10 04:00:00,
2013-05-09 21:05:00,44.8,23.7,17.72,NE,55,0.0,0.0,43,0.00,,,0.00,WeatherTracker,2013-05-10 04:05:00,
2013-05-09 21:15:00,44.1,24.1,17.72,NE,55,0.0,0.0,45,0.00,,,0.00,WeatherTracker,2013-05-10 04:15:00,
2013-05-09 21:25:00,43.5,24.1,17.72,NE,55,0.0,0.0,46,0.00,,,0.00,WeatherTracker,2013-05-10 04:25:00,
2013-05-09 21:30:00,43.3,24.0,17.72,NE,55,0.0,0.0,46,0.00,,,0.00,WeatherTracker,2013-05-10 04:30:00,
2013-05-09 21:35:00,42.8,24.0,17.72,NE,55,0.0,0.0,47,0.00,,,0.00,WeatherTracker,2013-05-10 04:35:00,
2013-05-09 21:45:00,42.3,24.5,17.72,NE,55,0.0,0.0,49,0.00,,,0.00,WeatherTracker,2013-05-10 04:45:00,
2013-05-09 21:50:00,41.9,24.1,17.72,NE,55,0.0,0.0,49,0.00,,,0.00,WeatherTracker,2013-05-10 04:50:00,
2013-05-09 21:55:00,41.5,24.3,17.72,NE,55,0.0,0.0,50,0.00,,,0.00,WeatherTracker,2013-05-10 04:55:00,
2013-05-09 22:00:00,41.2,24.0,17.72,NE,55,0.0,0.0,50,0.00,,,0.00,WeatherTracker,2013-05-10 05:00:00,
2013-05-09 22:05:00,41.2,24.0,17.72,NE,55,0.0,0.0,50,0.00,,,0.00,WeatherTracker,2013-05-10 05:05:00,
2013-05-09 22:15:00,40.8,24.1,17.72,NE,55,0.0,0.0,51,0.00,,,0.00,WeatherTracker,2013-05-10 05:15:00,
2013-05-09 22:20:00,40.8,24.1,17.72,NE,55,0.0,0.0,51,0.00,,,0.00,WeatherTracker,2013-05-10 05:20:00,
2013-05-09 22:25:00,40.8,24.1,17.72,NE,55,0.0,0.0,51,0.00,,,0.00,WeatherTracker,2013-05-10 05:25:00,
2013-05-09 22:35:00,40.1,23.4,17.72,NE,54,0.0,0.0,51,0.00,,,0.00,WeatherTracker,2013-05-10 05:35:00,
2013-05-09 22:40:00,39.7,23.6,17.72,NE,55,0.0,0.0,52,0.00,,,0.00,WeatherTracker,2013-05-10 05:40:00,
2013-05-09 22:45:00,39.4,23.2,17.72,NE,55,0.0,0.0,52,0.00,,,0.00,WeatherTracker,2013-05-10 05:45:00,
2013-05-09 22:50:00,39.0,23.4,17.72,NE,55,0.0,0.0,53,0.00,,,0.00,WeatherTracker,2013-05-10 05:50:00,
2013-05-09 23:00:00,39.0,23.4,17.72,NE,54,0.0,0.0,53,0.00,,,0.00,WeatherTracker,2013-05-10 06:00:00,
2013-05-09 23:05:00,38.7,23.0,17.72,NE,55,0.0,0.0,53,0.00,,,0.00,WeatherTracker,2013-05-10 06:05:00,
2013-05-09 23:10:00,38.5,22.9,17.72,NE,55,0.0,0.0,53,0.00,,,0.00,WeatherTracker,2013-05-10 06:10:00,
2013-05-09 23:20:00,38.5,23.3,17.72,NE,55,0.0,0.0,54,0.00,,,0.00,WeatherTracker,2013-05-10 06:20:00,
2013-05-09 23:30:00,37.6,22.5,17.72,NE,55,0.0,0.0,54,0.00,,,0.00,WeatherTracker,2013-05-10 06:30:00,
2013-05-09 23:35:00,37.4,22.7,17.72,NE,55,0.0,0.0,55,0.00,,,0.00,WeatherTracker,2013-05-10 06:35:00,
2013-05-09 23:45:00,37.2,23.0,17.72,NE,55,0.0,0.0,56,0.00,,,0.00,WeatherTracker,2013-05-10 06:45:00,
2013-05-09 23:50:00,37.6,22.9,17.72,NE,55,0.0,0.0,55,0.00,,,0.00,WeatherTracker,2013-05-10 06:50:00,
2013-05-09 23:55:00,37.6,22.9,17.72,NE,55,0.0,0.0,55,0.00,,,0.00,WeatherTracker,2013-05-10 06:55:00,